sensor_id;sensor_type;location;lat;lon;timestamp;pressure;altitude;pressure_sealevel;temperature;humidity
15880;BME280;61999;51.514;14.614;2023-05-19T00:01:14;100971.44;;;4.50;45.53
15880;BME280;61999;51.514;14.614;2023-05-19T00:03:51;100967.47;;;4.63;43.87
15880;BME280;61999;51.514;14.614;2023-05-19T00:06:23;100968.75;;;4.53;45.19
15880;BME280;61999;51.514;14.614;2023-05-19T00:08:57;100967.50;;;4.40;44.92
15880;BME280;61999;51.514;14.614;2023-05-19T00:11:27;100966.75;;;4.36;45.77
15880;BME280;61999;51.514;14.614;2023-05-19T00:13:57;100968.53;;;4.36;45.24
15880;BME280;61999;51.514;14.614;2023-05-19T00:16:29;100965.66;;;4.42;44.34
15880;BME280;61999;51.514;14.614;2023-05-19T00:19:00;100972.16;;;4.32;45.04
15880;BME280;61999;51.514;14.614;2023-05-19T00:21:29;100972.97;;;4.34;44.26
15880;BME280;61999;51.514;14.614;2023-05-19T00:23:58;100974.66;;;4.35;44.94
15880;BME280;61999;51.514;14.614;2023-05-19T00:26:27;100961.78;;;4.30;45.05
15880;BME280;61999;51.514;14.614;2023-05-19T00:28:55;100968.53;;;4.36;44.46
15880;BME280;61999;51.514;14.614;2023-05-19T00:31:23;100962.66;;;4.31;44.59
15880;BME280;61999;51.514;14.614;2023-05-19T00:33:53;100958.06;;;4.36;43.81
15880;BME280;61999;51.514;14.614;2023-05-19T00:36:21;100959.72;;;4.38;43.09
15880;BME280;61999;51.514;14.614;2023-05-19T00:38:49;100957.97;;;4.39;43.23
15880;BME280;61999;51.514;14.614;2023-05-19T00:41:18;100960.56;;;4.39;42.83
15880;BME280;61999;51.514;14.614;2023-05-19T00:43:46;100961.44;;;4.39;42.88
15880;BME280;61999;51.514;14.614;2023-05-19T00:46:15;100959.69;;;4.40;42.79
15880;BME280;61999;51.514;14.614;2023-05-19T00:48:43;100957.97;;;4.39;42.64
15880;BME280;61999;51.514;14.614;2023-05-19T00:51:13;100958.84;;;4.39;42.77
15880;BME280;61999;51.514;14.614;2023-05-19T00:53:45;100961.38;;;4.41;42.74
15880;BME280;61999;51.514;14.614;2023-05-19T00:56:15;100966.00;;;4.34;44.03
15880;BME280;61999;51.514;14.614;2023-05-19T00:58:44;100963.41;;;4.33;44.01
15880;BME280;61999;51.514;14.614;2023-05-19T01:01:13;100959.00;;;4.35;43.85
15880;BME280;61999;51.514;14.614;2023-05-19T01:03:43;100956.94;;;4.43;43.32
15880;BME280;61999;51.514;14.614;2023-05-19T01:06:14;100956.81;;;4.46;43.52
15880;BME280;61999;51.514;14.614;2023-05-19T01:08:44;100957.66;;;4.47;43.60
15880;BME280;61999;51.514;14.614;2023-05-19T01:11:13;100952.31;;;4.28;46.38
15880;BME280;61999;51.514;14.614;2023-05-19T01:13:42;100963.19;;;4.39;44.75
15880;BME280;61999;51.514;14.614;2023-05-19T01:16:18;100960.09;;;4.51;44.24
15880;BME280;61999;51.514;14.614;2023-05-19T01:18:59;100956.56;;;4.54;44.06
15880;BME280;61999;51.514;14.614;2023-05-19T01:22:08;100967.25;;;4.46;44.89
15880;BME280;61999;51.514;14.614;2023-05-19T01:28:40;100952.31;;;4.50;44.26
15880;BME280;61999;51.514;14.614;2023-05-19T01:31:14;100952.41;;;4.48;45.08
15880;BME280;61999;51.514;14.614;2023-05-19T01:33:44;100953.38;;;4.46;44.99
15880;BME280;61999;51.514;14.614;2023-05-19T01:36:14;100956.69;;;4.49;44.74
15880;BME280;61999;51.514;14.614;2023-05-19T01:38:42;100957.63;;;4.48;44.92
15880;BME280;61999;51.514;14.614;2023-05-19T01:41:13;100961.00;;;4.50;44.80
15880;BME280;61999;51.514;14.614;2023-05-19T01:43:44;100963.47;;;4.55;44.26
15880;BME280;61999;51.514;14.614;2023-05-19T01:46:15;100960.78;;;4.56;44.12
15880;BME280;61999;51.514;14.614;2023-05-19T01:48:45;100959.94;;;4.56;43.91
15880;BME280;61999;51.514;14.614;2023-05-19T01:51:14;100960.78;;;4.56;43.80
15880;BME280;61999;51.514;14.614;2023-05-19T01:53:42;100955.66;;;4.55;44.08
15880;BME280;61999;51.514;14.614;2023-05-19T01:56:15;100959.19;;;4.54;44.31
15880;BME280;61999;51.514;14.614;2023-05-19T01:58:55;100956.69;;;4.49;44.85
15880;BME280;61999;51.514;14.614;2023-05-19T02:01:33;100959.34;;;4.48;44.89
15880;BME280;61999;51.514;14.614;2023-05-19T02:04:18;100959.44;;;4.46;44.91
15880;BME280;61999;51.514;14.614;2023-05-19T02:07:00;100956.03;;;4.44;46.68
15880;BME280;61999;51.514;14.614;2023-05-19T02:09:38;100962.09;;;4.23;47.90
15880;BME280;61999;51.514;14.614;2023-05-19T02:12:14;100965.91;;;4.36;46.13
15880;BME280;61999;51.514;14.614;2023-05-19T02:14:52;100957.91;;;4.40;45.05
15880;BME280;61999;51.514;14.614;2023-05-19T02:17:25;100955.34;;;4.39;44.98
15880;BME280;61999;51.514;14.614;2023-05-19T02:19:55;100955.72;;;4.30;46.37
15880;BME280;61999;51.514;14.614;2023-05-19T02:22:24;100954.06;;;4.27;46.24
15880;BME280;61999;51.514;14.614;2023-05-19T02:24:52;100954.81;;;4.31;45.19
15880;BME280;61999;51.514;14.614;2023-05-19T02:27:22;100948.13;;;4.24;46.19
15880;BME280;61999;51.514;14.614;2023-05-19T02:29:51;100955.50;;;4.12;46.60
15880;BME280;61999;51.514;14.614;2023-05-19T02:32:20;100946.75;;;4.13;46.52
15880;BME280;61999;51.514;14.614;2023-05-19T02:34:49;100943.25;;;4.14;46.08
15880;BME280;61999;51.514;14.614;2023-05-19T02:37:19;100946.75;;;4.13;45.56
15880;BME280;61999;51.514;14.614;2023-05-19T02:39:49;100945.19;;;4.09;45.99
15880;BME280;61999;51.514;14.614;2023-05-19T02:42:18;100945.31;;;4.06;45.60
15880;BME280;61999;51.514;14.614;2023-05-19T02:44:46;100945.47;;;4.02;46.07
15880;BME280;61999;51.514;14.614;2023-05-19T02:47:14;100945.53;;;4.00;46.08
15880;BME280;61999;51.514;14.614;2023-05-19T02:49:42;100943.94;;;3.96;46.58
15880;BME280;61999;51.514;14.614;2023-05-19T02:52:12;100941.44;;;3.93;46.37
15880;BME280;61999;51.514;14.614;2023-05-19T02:54:40;100944.16;;;3.90;46.62
15880;BME280;61999;51.514;14.614;2023-05-19T02:57:09;100943.31;;;3.89;46.36
15880;BME280;61999;51.514;14.614;2023-05-19T02:59:37;100940.66;;;3.91;45.66
15880;BME280;61999;51.514;14.614;2023-05-19T03:02:06;100938.94;;;3.90;45.50
15880;BME280;61999;51.514;14.614;2023-05-19T03:04:35;100941.50;;;3.91;45.54
15880;BME280;61999;51.514;14.614;2023-05-19T03:07:08;100947.59;;;3.92;45.30
15880;BME280;61999;51.514;14.614;2023-05-19T03:09:38;100932.84;;;3.91;45.24
15880;BME280;61999;51.514;14.614;2023-05-19T03:12:07;100947.59;;;3.92;45.21
15880;BME280;61999;51.514;14.614;2023-05-19T03:14:35;100947.59;;;3.92;45.23
15880;BME280;61999;51.514;14.614;2023-05-19T03:17:04;100945.88;;;3.91;45.50
15880;BME280;61999;51.514;14.614;2023-05-19T03:19:34;100944.16;;;3.90;45.30
15880;BME280;61999;51.514;14.614;2023-05-19T03:22:02;100946.78;;;3.90;45.52
15880;BME280;61999;51.514;14.614;2023-05-19T03:24:31;100955.31;;;3.93;45.54
15880;BME280;61999;51.514;14.614;2023-05-19T03:27:00;100951.84;;;3.94;45.47
15880;BME280;61999;51.514;14.614;2023-05-19T03:29:28;100953.53;;;3.95;45.66
15880;BME280;61999;51.514;14.614;2023-05-19T03:31:56;100956.09;;;3.97;45.62
15880;BME280;61999;51.514;14.614;2023-05-19T03:34:25;100956.81;;;4.01;45.33
15880;BME280;61999;51.514;14.614;2023-05-19T03:36:53;100960.22;;;4.03;45.69
15880;BME280;61999;51.514;14.614;2023-05-19T03:39:21;100962.75;;;4.04;46.54
15880;BME280;61999;51.514;14.614;2023-05-19T03:41:49;100964.38;;;4.08;45.81
15880;BME280;61999;51.514;14.614;2023-05-19T03:44:19;100965.03;;;4.13;45.64
15880;BME280;61999;51.514;14.614;2023-05-19T03:46:47;100962.31;;;4.16;45.72
15880;BME280;61999;51.514;14.614;2023-05-19T03:49:15;100963.06;;;4.20;45.75
15880;BME280;61999;51.514;14.614;2023-05-19T03:51:44;100957.59;;;4.26;45.65
15880;BME280;61999;51.514;14.614;2023-05-19T03:54:12;100956.63;;;4.29;45.78
15880;BME280;61999;51.514;14.614;2023-05-19T03:56:42;100958.19;;;4.33;45.93
15880;BME280;61999;51.514;14.614;2023-05-19T03:59:10;100959.81;;;4.37;45.75
15880;BME280;61999;51.514;14.614;2023-05-19T04:01:40;100964.81;;;4.41;45.95
15880;BME280;61999;51.514;14.614;2023-05-19T04:04:08;100965.56;;;4.45;45.93
15880;BME280;61999;51.514;14.614;2023-05-19T04:06:36;100972.38;;;4.49;45.79
15880;BME280;61999;51.514;14.614;2023-05-19T04:09:11;100967.84;;;4.54;46.02
15880;BME280;61999;51.514;14.614;2023-05-19T04:11:40;100970.34;;;4.57;46.24
15880;BME280;61999;51.514;14.614;2023-05-19T04:14:08;100967.59;;;4.60;46.19
15880;BME280;61999;51.514;14.614;2023-05-19T04:16:37;100969.16;;;4.64;46.23
15880;BME280;61999;51.514;14.614;2023-05-19T04:19:06;100970.66;;;4.72;46.03
15880;BME280;61999;51.514;14.614;2023-05-19T04:21:35;100968.72;;;4.77;46.36
15880;BME280;61999;51.514;14.614;2023-05-19T04:24:04;100976.34;;;4.81;46.82
15880;BME280;61999;51.514;14.614;2023-05-19T04:26:32;100973.56;;;4.86;47.00
15880;BME280;61999;51.514;14.614;2023-05-19T04:29:01;100972.31;;;4.95;46.86
15880;BME280;61999;51.514;14.614;2023-05-19T04:31:30;100977.28;;;5.01;46.88
15880;BME280;61999;51.514;14.614;2023-05-19T04:34:00;100977.03;;;5.07;46.87
15880;BME280;61999;51.514;14.614;2023-05-19T04:36:30;100979.38;;;5.13;47.32
15880;BME280;61999;51.514;14.614;2023-05-19T04:38:59;100977.41;;;5.20;47.07
15880;BME280;61999;51.514;14.614;2023-05-19T04:41:32;100967.50;;;5.26;47.09
15880;BME280;61999;51.514;14.614;2023-05-19T04:44:00;100969.94;;;5.31;47.17
15880;BME280;61999;51.514;14.614;2023-05-19T04:46:28;100972.56;;;5.31;47.82
15880;BME280;61999;51.514;14.614;2023-05-19T04:48:57;100971.31;;;5.40;47.69
15880;BME280;61999;51.514;14.614;2023-05-19T04:51:27;100973.66;;;5.46;47.46
15880;BME280;61999;51.514;14.614;2023-05-19T04:53:58;100966.59;;;5.48;47.83
15880;BME280;61999;51.514;14.614;2023-05-19T04:56:27;100973.19;;;5.57;47.40
15880;BME280;61999;51.514;14.614;2023-05-19T04:58:55;100975.47;;;5.64;47.64
15880;BME280;61999;51.514;14.614;2023-05-19T05:01:24;100983.16;;;5.69;47.54
15880;BME280;61999;51.514;14.614;2023-05-19T05:03:53;100982.09;;;5.73;47.85
15880;BME280;61999;51.514;14.614;2023-05-19T05:06:22;100975.81;;;5.77;48.23
15880;BME280;61999;51.514;14.614;2023-05-19T05:08:50;100982.47;;;5.84;48.26
15880;BME280;61999;51.514;14.614;2023-05-19T05:11:21;100980.38;;;5.92;47.93
15880;BME280;61999;51.514;14.614;2023-05-19T05:13:50;100972.22;;;5.98;48.13
15880;BME280;61999;51.514;14.614;2023-05-19T05:16:19;100968.44;;;6.06;47.96
15880;BME280;61999;51.514;14.614;2023-05-19T05:18:48;100969.84;;;6.13;47.69
15880;BME280;61999;51.514;14.614;2023-05-19T05:21:17;100972.94;;;6.21;47.95
15880;BME280;61999;51.514;14.614;2023-05-19T05:23:47;100973.59;;;6.26;48.11
15880;BME280;61999;51.514;14.614;2023-05-19T05:26:17;100973.31;;;6.32;48.06
15880;BME280;61999;51.514;14.614;2023-05-19T05:28:48;100972.22;;;6.36;48.13
15880;BME280;61999;51.514;14.614;2023-05-19T05:31:17;100979.47;;;6.31;49.03
15880;BME280;61999;51.514;14.614;2023-05-19T05:33:45;100973.00;;;6.38;49.08
15880;BME280;61999;51.514;14.614;2023-05-19T05:36:13;100971.81;;;6.46;48.61
15880;BME280;61999;51.514;14.614;2023-05-19T05:38:41;100974.34;;;6.47;48.84
15880;BME280;61999;51.514;14.614;2023-05-19T05:41:09;100973.50;;;6.47;49.41
15880;BME280;61999;51.514;14.614;2023-05-19T05:43:38;100970.09;;;6.44;49.87
15880;BME280;61999;51.514;14.614;2023-05-19T05:46:07;100972.22;;;6.55;49.30
15880;BME280;61999;51.514;14.614;2023-05-19T05:48:36;100977.25;;;6.60;50.19
15880;BME280;61999;51.514;14.614;2023-05-19T05:51:06;100972.19;;;6.74;49.48
15880;BME280;61999;51.514;14.614;2023-05-19T05:53:39;100967.09;;;6.71;50.64
15880;BME280;61999;51.514;14.614;2023-05-19T05:56:11;100963.59;;;6.89;49.60
15880;BME280;61999;51.514;14.614;2023-05-19T05:58:39;100959.50;;;7.01;49.09
15880;BME280;61999;51.514;14.614;2023-05-19T06:01:09;100963.69;;;7.05;49.50
15880;BME280;61999;51.514;14.614;2023-05-19T06:03:40;100967.31;;;7.20;49.25
15880;BME280;61999;51.514;14.614;2023-05-19T06:06:09;100969.53;;;7.28;49.12
15880;BME280;61999;51.514;14.614;2023-05-19T06:08:37;100968.53;;;7.30;49.31
15880;BME280;61999;51.514;14.614;2023-05-19T06:11:05;100967.63;;;7.31;49.24
15880;BME280;61999;51.514;14.614;2023-05-19T06:13:35;100967.78;;;7.28;49.21
15880;BME280;61999;51.514;14.614;2023-05-19T06:16:04;100967.00;;;7.44;49.28
15880;BME280;61999;51.514;14.614;2023-05-19T06:18:34;100969.69;;;7.42;48.84
15880;BME280;61999;51.514;14.614;2023-05-19T06:21:02;100968.47;;;7.65;48.61
15880;BME280;61999;51.514;14.614;2023-05-19T06:23:30;100963.69;;;7.73;48.49
15880;BME280;61999;51.514;14.614;2023-05-19T06:25:59;100970.47;;;7.77;47.94
15880;BME280;61999;51.514;14.614;2023-05-19T06:28:27;100970.25;;;7.82;48.37
15880;BME280;61999;51.514;14.614;2023-05-19T06:30:55;100982.81;;;7.93;47.85
15880;BME280;61999;51.514;14.614;2023-05-19T06:33:23;100972.91;;;8.14;47.18
15880;BME280;61999;51.514;14.614;2023-05-19T06:35:54;100975.88;;;8.08;47.51
15880;BME280;61999;51.514;14.614;2023-05-19T06:38:22;100975.22;;;8.04;47.26
15880;BME280;61999;51.514;14.614;2023-05-19T06:40:50;100977.66;;;8.07;47.24
15880;BME280;61999;51.514;14.614;2023-05-19T06:43:19;100978.88;;;8.17;46.88
15880;BME280;61999;51.514;14.614;2023-05-19T06:45:47;100985.91;;;8.33;46.73
15880;BME280;61999;51.514;14.614;2023-05-19T06:48:15;100975.22;;;8.36;46.80
15880;BME280;61999;51.514;14.614;2023-05-19T06:50:43;100981.75;;;8.44;46.67
15880;BME280;61999;51.514;14.614;2023-05-19T06:53:13;100984.94;;;8.65;46.22
15880;BME280;61999;51.514;14.614;2023-05-19T06:55:41;100988.34;;;8.67;46.19
15880;BME280;61999;51.514;14.614;2023-05-19T06:58:16;100988.03;;;8.58;45.88
15880;BME280;61999;51.514;14.614;2023-05-19T07:00:44;100984.31;;;8.78;45.69
15880;BME280;61999;51.514;14.614;2023-05-19T07:03:12;100990.91;;;8.85;45.65
15880;BME280;61999;51.514;14.614;2023-05-19T07:05:41;101001.41;;;8.85;45.92
15880;BME280;61999;51.514;14.614;2023-05-19T07:08:09;100993.75;;;8.96;45.89
15880;BME280;61999;51.514;14.614;2023-05-19T07:10:40;100999.19;;;8.93;45.34
15880;BME280;61999;51.514;14.614;2023-05-19T07:13:10;100992.88;;;8.81;45.47
15880;BME280;61999;51.514;14.614;2023-05-19T07:15:39;100994.13;;;8.90;45.40
15880;BME280;61999;51.514;14.614;2023-05-19T07:18:08;100991.41;;;8.92;45.25
15880;BME280;61999;51.514;14.614;2023-05-19T07:20:36;100993.94;;;8.93;45.28
15880;BME280;61999;51.514;14.614;2023-05-19T07:23:04;100999.97;;;8.95;45.06
15880;BME280;61999;51.514;14.614;2023-05-19T07:25:32;100993.63;;;8.83;44.73
15880;BME280;61999;51.514;14.614;2023-05-19T07:28:02;100990.91;;;8.85;44.81
15880;BME280;61999;51.514;14.614;2023-05-19T07:30:30;100995.81;;;8.91;44.44
15880;BME280;61999;51.514;14.614;2023-05-19T07:32:59;100987.78;;;8.78;44.97
15880;BME280;61999;51.514;14.614;2023-05-19T07:35:27;100986.25;;;8.58;45.04
15880;BME280;61999;51.514;14.614;2023-05-19T07:37:56;100985.47;;;8.56;44.70
15880;BME280;61999;51.514;14.614;2023-05-19T07:40:24;100983.78;;;8.55;45.13
15880;BME280;61999;51.514;14.614;2023-05-19T07:42:52;100975.47;;;8.79;44.61
15880;BME280;61999;51.514;14.614;2023-05-19T07:45:22;100980.78;;;8.93;43.93
15880;BME280;61999;51.514;14.614;2023-05-19T07:47:50;100978.13;;;9.09;44.12
15880;BME280;61999;51.514;14.614;2023-05-19T07:50:18;100980.19;;;8.88;44.00
15880;BME280;61999;51.514;14.614;2023-05-19T07:52:46;100976.81;;;9.16;43.50
15880;BME280;61999;51.514;14.614;2023-05-19T07:55:15;100969.41;;;9.23;43.05
15880;BME280;61999;51.514;14.614;2023-05-19T07:57:45;100981.69;;;9.52;43.04
15880;BME280;61999;51.514;14.614;2023-05-19T08:00:14;100980.78;;;9.68;42.55
15880;BME280;61999;51.514;14.614;2023-05-19T08:02:45;100976.09;;;9.87;41.89
15880;BME280;61999;51.514;14.614;2023-05-19T08:05:13;100973.50;;;10.14;41.73
15880;BME280;61999;51.514;14.614;2023-05-19T08:07:41;100973.41;;;10.30;41.43
15880;BME280;61999;51.514;14.614;2023-05-19T08:10:09;100972.97;;;10.65;41.02
15880;BME280;61999;51.514;14.614;2023-05-19T08:12:38;100966.81;;;10.91;40.10
15880;BME280;61999;51.514;14.614;2023-05-19T08:15:07;100957.63;;;10.84;39.45
15880;BME280;61999;51.514;14.614;2023-05-19T08:17:37;100968.44;;;11.07;39.09
15880;BME280;61999;51.514;14.614;2023-05-19T08:20:08;100971.78;;;10.96;36.66
15880;BME280;61999;51.514;14.614;2023-05-19T08:22:38;100958.00;;;11.18;36.42
15880;BME280;61999;51.514;14.614;2023-05-19T08:25:07;100963.84;;;11.23;36.47
15880;BME280;61999;51.514;14.614;2023-05-19T08:27:36;100959.84;;;11.43;36.51
15880;BME280;61999;51.514;14.614;2023-05-19T08:30:06;100950.66;;;11.49;36.56
15880;BME280;61999;51.514;14.614;2023-05-19T08:32:34;100949.16;;;11.70;36.48
15880;BME280;61999;51.514;14.614;2023-05-19T08:35:03;100961.72;;;11.92;35.90
15880;BME280;61999;51.514;14.614;2023-05-19T08:37:32;100952.47;;;11.61;35.70
15880;BME280;61999;51.514;14.614;2023-05-19T08:40:03;100944.63;;;11.72;35.76
15880;BME280;61999;51.514;14.614;2023-05-19T08:42:32;100950.94;;;11.95;35.69
15880;BME280;61999;51.514;14.614;2023-05-19T08:45:01;100944.56;;;12.23;34.94
15880;BME280;61999;51.514;14.614;2023-05-19T08:47:30;100944.53;;;12.11;34.52
15880;BME280;61999;51.514;14.614;2023-05-19T08:50:05;100947.59;;;11.80;35.69
15880;BME280;61999;51.514;14.614;2023-05-19T08:52:48;100948.34;;;12.32;35.46
15880;BME280;61999;51.514;14.614;2023-05-19T08:55:30;100943.31;;;12.03;34.81
15880;BME280;61999;51.514;14.614;2023-05-19T08:58:00;100936.75;;;12.09;35.37
15880;BME280;61999;51.514;14.614;2023-05-19T09:00:31;100933.56;;;12.04;36.25
15880;BME280;61999;51.514;14.614;2023-05-19T09:03:00;100932.84;;;12.39;35.72
15880;BME280;61999;51.514;14.614;2023-05-19T09:05:37;100940.47;;;12.43;34.66
15880;BME280;61999;51.514;14.614;2023-05-19T09:08:07;100930.25;;;12.50;34.60
15880;BME280;61999;51.514;14.614;2023-05-19T09:10:35;100932.25;;;12.35;34.45
15880;BME280;61999;51.514;14.614;2023-05-19T09:13:04;100929.47;;;12.37;35.62
15880;BME280;61999;51.514;14.614;2023-05-19T09:15:34;100927.78;;;12.36;35.46
15880;BME280;61999;51.514;14.614;2023-05-19T09:18:07;100926.72;;;12.38;34.85
15880;BME280;61999;51.514;14.614;2023-05-19T09:20:38;100925.72;;;12.63;34.56
15880;BME280;61999;51.514;14.614;2023-05-19T09:23:12;100936.13;;;12.66;34.60
15880;BME280;61999;51.514;14.614;2023-05-19T09:25:48;100926.69;;;12.62;35.15
15880;BME280;61999;51.514;14.614;2023-05-19T09:28:23;100929.91;;;12.79;34.80
15880;BME280;61999;51.514;14.614;2023-05-19T09:30:59;100929.72;;;12.93;33.96
15880;BME280;61999;51.514;14.614;2023-05-19T09:33:28;100932.28;;;12.70;34.54
15880;BME280;61999;51.514;14.614;2023-05-19T09:35:57;100935.75;;;12.71;34.83
15880;BME280;61999;51.514;14.614;2023-05-19T09:38:26;100937.34;;;12.74;34.95
15880;BME280;61999;51.514;14.614;2023-05-19T09:40:56;100931.91;;;12.99;34.60
15880;BME280;61999;51.514;14.614;2023-05-19T09:43:26;100932.28;;;13.06;34.41
15880;BME280;61999;51.514;14.614;2023-05-19T09:45:58;100921.84;;;13.15;33.91
15880;BME280;61999;51.514;14.614;2023-05-19T09:48:27;100929.03;;;13.02;33.71
15880;BME280;61999;51.514;14.614;2023-05-19T09:50:56;100925.31;;;13.05;34.36
15880;BME280;61999;51.514;14.614;2023-05-19T09:53:28;100925.69;;;13.11;34.25
15880;BME280;61999;51.514;14.614;2023-05-19T09:55:57;100932.22;;;13.30;33.48
15880;BME280;61999;51.514;14.614;2023-05-19T09:58:30;100926.03;;;12.96;33.53
15880;BME280;61999;51.514;14.614;2023-05-19T10:01:00;100924.00;;;12.75;33.63
15880;BME280;61999;51.514;14.614;2023-05-19T10:03:30;100926.84;;;12.96;34.45
15880;BME280;61999;51.514;14.614;2023-05-19T10:06:00;100924.66;;;12.90;33.88
15880;BME280;61999;51.514;14.614;2023-05-19T10:08:32;100915.69;;;12.80;34.57
15880;BME280;61999;51.514;14.614;2023-05-19T10:11:01;100928.44;;;12.75;34.38
15880;BME280;61999;51.514;14.614;2023-05-19T10:13:30;100922.16;;;13.00;34.00
15880;BME280;61999;51.514;14.614;2023-05-19T10:16:00;100913.94;;;12.91;34.37
15880;BME280;61999;51.514;14.614;2023-05-19T10:18:29;100917.25;;;13.06;34.04
15880;BME280;61999;51.514;14.614;2023-05-19T10:21:01;100915.84;;;13.36;33.32
15880;BME280;61999;51.514;14.614;2023-05-19T10:23:31;100914.78;;;13.27;33.38
15880;BME280;61999;51.514;14.614;2023-05-19T10:26:02;100897.09;;;13.84;32.58
15880;BME280;61999;51.514;14.614;2023-05-19T10:28:37;100896.88;;;13.76;32.21
15880;BME280;61999;51.514;14.614;2023-05-19T10:31:13;100893.72;;;13.82;31.88
15880;BME280;61999;51.514;14.614;2023-05-19T10:34:04;100885.03;;;13.80;31.91
15880;BME280;61999;51.514;14.614;2023-05-19T10:36:47;100897.59;;;13.78;31.77
15880;BME280;61999;51.514;14.614;2023-05-19T10:39:24;100909.34;;;13.63;31.02
15880;BME280;61999;51.514;14.614;2023-05-19T10:42:04;100903.34;;;13.72;31.98
15880;BME280;61999;51.514;14.614;2023-05-19T10:44:50;100894.06;;;13.66;31.38
15880;BME280;61999;51.514;14.614;2023-05-19T10:47:23;100895.50;;;13.93;31.22
15880;BME280;61999;51.514;14.614;2023-05-19T10:49:52;100893.31;;;13.98;31.77
15880;BME280;61999;51.514;14.614;2023-05-19T10:52:22;100890.81;;;14.28;31.63
15880;BME280;61999;51.514;14.614;2023-05-19T10:54:56;100887.31;;;14.39;31.22
15880;BME280;61999;51.514;14.614;2023-05-19T10:57:25;100874.44;;;14.67;30.20
15880;BME280;61999;51.514;14.614;2023-05-19T10:59:58;100883.75;;;14.82;30.28
15880;BME280;61999;51.514;14.614;2023-05-19T11:02:38;100885.97;;;14.98;30.43
15880;BME280;61999;51.514;14.614;2023-05-19T11:05:11;100878.41;;;15.55;29.88
15880;BME280;61999;51.514;14.614;2023-05-19T11:07:54;100879.03;;;16.28;29.54
15880;BME280;61999;51.514;14.614;2023-05-19T11:10:24;100873.63;;;17.25;28.98
15880;BME280;61999;51.514;14.614;2023-05-19T11:12:56;100870.47;;;18.13;27.38
15880;BME280;61999;51.514;14.614;2023-05-19T11:15:26;100877.91;;;18.55;26.12
15880;BME280;61999;51.514;14.614;2023-05-19T11:17:54;100870.88;;;19.58;25.98
15880;BME280;61999;51.514;14.614;2023-05-19T11:20:25;100872.13;;;20.30;23.82
15880;BME280;61999;51.514;14.614;2023-05-19T11:23:07;100867.38;;;20.08;24.13
15880;BME280;61999;51.514;14.614;2023-05-19T11:25:45;100869.75;;;20.52;23.38
15880;BME280;61999;51.514;14.614;2023-05-19T11:28:16;100873.78;;;20.81;23.97
15880;BME280;61999;51.514;14.614;2023-05-19T11:30:47;100869.09;;;20.91;23.54
15880;BME280;61999;51.514;14.614;2023-05-19T11:33:19;100879.13;;;20.64;22.87
15880;BME280;61999;51.514;14.614;2023-05-19T11:35:54;100880.25;;;20.13;23.84
15880;BME280;61999;51.514;14.614;2023-05-19T11:38:24;100875.88;;;19.53;23.82
15880;BME280;61999;51.514;14.614;2023-05-19T11:40:54;100872.31;;;19.44;23.33
15880;BME280;61999;51.514;14.614;2023-05-19T11:43:23;100879.84;;;18.88;24.64
15880;BME280;61999;51.514;14.614;2023-05-19T11:45:53;100884.22;;;18.36;25.20
15880;BME280;61999;51.514;14.614;2023-05-19T11:48:22;100879.06;;;18.16;25.57
15880;BME280;61999;51.514;14.614;2023-05-19T11:50:51;100881.84;;;17.69;25.72
15880;BME280;61999;51.514;14.614;2023-05-19T11:53:20;100877.69;;;17.57;26.45
15880;BME280;61999;51.514;14.614;2023-05-19T11:55:48;100881.50;;;17.17;26.55
15880;BME280;61999;51.514;14.614;2023-05-19T11:58:24;100885.44;;;17.03;26.61
15880;BME280;61999;51.514;14.614;2023-05-19T12:00:54;100878.13;;;17.05;27.28
15880;BME280;61999;51.514;14.614;2023-05-19T12:03:22;100883.47;;;16.95;27.50
15880;BME280;61999;51.514;14.614;2023-05-19T12:05:53;100882.94;;;16.92;26.90
15880;BME280;61999;51.514;14.614;2023-05-19T12:08:22;100883.47;;;17.05;26.79
15880;BME280;61999;51.514;14.614;2023-05-19T12:10:51;100879.81;;;17.06;27.31
15880;BME280;61999;51.514;14.614;2023-05-19T12:13:21;100881.75;;;17.24;26.76
15880;BME280;61999;51.514;14.614;2023-05-19T12:15:50;100877.41;;;17.23;27.42
15880;BME280;61999;51.514;14.614;2023-05-19T12:18:19;100877.56;;;17.11;27.73
15880;BME280;61999;51.514;14.614;2023-05-19T12:20:47;100882.38;;;16.20;28.76
15880;BME280;61999;51.514;14.614;2023-05-19T12:23:15;100875.66;;;16.26;28.49
15880;BME280;61999;51.514;14.614;2023-05-19T12:25:44;100875.97;;;16.52;27.75
15880;BME280;61999;51.514;14.614;2023-05-19T12:28:14;100878.16;;;16.18;28.27
15880;BME280;61999;51.514;14.614;2023-05-19T12:30:48;100874.25;;;16.22;28.18
15880;BME280;61999;51.514;14.614;2023-05-19T12:33:18;100884.88;;;16.12;28.73
15880;BME280;61999;51.514;14.614;2023-05-19T12:35:47;100875.75;;;15.86;29.14
15880;BME280;61999;51.514;14.614;2023-05-19T12:38:18;100878.75;;;15.31;29.79
15880;BME280;61999;51.514;14.614;2023-05-19T12:40:49;100875.47;;;15.48;28.43
15880;BME280;61999;51.514;14.614;2023-05-19T12:43:20;100878.44;;;15.24;29.19
15880;BME280;61999;51.514;14.614;2023-05-19T12:45:50;100881.16;;;15.44;28.75
15880;BME280;61999;51.514;14.614;2023-05-19T12:48:21;100873.81;;;15.57;28.65
15880;BME280;61999;51.514;14.614;2023-05-19T12:50:51;100875.09;;;15.32;29.80
15880;BME280;61999;51.514;14.614;2023-05-19T12:53:21;100875.16;;;15.42;29.23
15880;BME280;61999;51.514;14.614;2023-05-19T12:55:51;100872.66;;;14.77;30.89
15880;BME280;61999;51.514;14.614;2023-05-19T12:58:19;100877.66;;;14.38;30.63
15880;BME280;61999;51.514;14.614;2023-05-19T13:00:57;100880.03;;;14.09;31.37
15880;BME280;61999;51.514;14.614;2023-05-19T13:03:26;100883.69;;;13.97;31.22
15880;BME280;61999;51.514;14.614;2023-05-19T13:05:54;100875.97;;;13.94;31.84